FACV

Calvinia Airport

Calvinia, South Africa
METAR FACV 220626Z 05005KT CAVOK 10/M02 Q1020
Observed Flight Rules
Apr-22 @ 06:26 UTC (31 minutes ago) Visual Flight Rules
Wind Visibility Clouds
50° at 5 knots 10,000+ meters
  • Clear skies
Temperatures Readings
Current 10°C / 50°F
Dewpoint -2°C / 28°F
Humidity 43%
Altimeter 30.12" Hg
Pressure 1020 hPa
Elevation 977
METAR FACV 220626Z 05005KT CAVOK 10/M02 Q1020
Observed Flight Rules
Apr-22 @ 06:26 UTC
(31 minutes ago)
VFR
Wind Visibility
50° at 5 knots 10,000+ meters
Clouds
  • Clear skies
Temperature Dewpoint
10°C / 50°F -2°C / 28°F
Humidity Altimeter Pressure
43% 30.12" Hg 1020 hPa